createdAt,value
2023-05-10T00:00:00.004Z,13.83
2023-05-10T00:00:55.141Z,13.80
2023-05-10T00:02:01.858Z,13.88
2023-05-10T00:02:55.484Z,13.87
2023-05-10T00:03:59.950Z,13.88
2023-05-10T00:04:55.694Z,13.87
2023-05-10T00:06:57.346Z,13.83
2023-05-10T00:07:55.842Z,13.91
2023-05-10T00:08:54.859Z,13.84
2023-05-10T00:09:56.384Z,13.76
2023-05-10T00:10:54.674Z,13.84
2023-05-10T00:11:54.973Z,13.80
2023-05-10T00:12:55.623Z,13.80
2023-05-10T00:13:55.459Z,13.88
2023-05-10T00:15:03.012Z,13.87
2023-05-10T00:15:54.646Z,13.88
2023-05-10T00:17:09.542Z,13.81
2023-05-10T00:17:55.663Z,13.84
2023-05-10T00:19:09.200Z,13.84
2023-05-10T00:20:20.163Z,13.71
2023-05-10T00:20:54.857Z,13.76
2023-05-10T00:21:55.853Z,13.76
2023-05-10T00:22:55.750Z,13.72
2023-05-10T00:23:55.372Z,13.72
2023-05-10T00:25:10.855Z,13.72
2023-05-10T00:25:55.664Z,13.73
2023-05-10T00:27:02.947Z,13.75
2023-05-10T00:27:53.903Z,13.83
2023-05-10T00:28:54.335Z,13.81
2023-05-10T00:29:53.858Z,13.80
2023-05-10T00:30:53.729Z,13.83
2023-05-10T00:31:54.818Z,13.79
2023-05-10T00:32:54.313Z,13.83
2023-05-10T00:33:55.580Z,13.79
2023-05-10T00:34:54.535Z,13.88
2023-05-10T00:37:48.009Z,13.88
2023-05-10T00:38:48.350Z,13.87
2023-05-10T00:39:47.787Z,13.86
2023-05-10T00:40:47.442Z,13.88
2023-05-10T00:41:47.601Z,13.90
2023-05-10T00:42:47.883Z,13.90
2023-05-10T00:43:53.889Z,13.86
2023-05-10T00:44:47.488Z,13.83
2023-05-10T00:45:54.889Z,13.91
2023-05-10T00:46:55.520Z,13.83
2023-05-10T00:47:47.776Z,13.91
2023-05-10T00:48:47.102Z,13.86
2023-05-10T00:49:47.876Z,13.91
2023-05-10T00:50:47.054Z,13.90
2023-05-10T00:51:49.367Z,13.90
2023-05-10T00:52:48.596Z,13.81
2023-05-10T00:53:48.894Z,13.81
2023-05-10T00:54:47.754Z,13.88
2023-05-10T00:55:53.868Z,13.99
2023-05-10T00:56:58.382Z,13.86
2023-05-10T00:58:52.378Z,13.96
2023-05-10T00:59:53.883Z,13.88
2023-05-10T01:01:24.246Z,13.79
2023-05-10T01:02:51.179Z,13.88
2023-05-10T01:03:56.372Z,13.90
2023-05-10T01:06:02.535Z,13.87
2023-05-10T01:44:45.607Z,13.38
2023-05-10T01:46:00.681Z,13.38
2023-05-10T01:48:35.749Z,13.41
2023-05-10T01:49:35.688Z,13.39
2023-05-10T01:50:36.209Z,13.39
2023-05-10T01:51:35.615Z,13.31
2023-05-10T01:52:35.690Z,13.38
2023-05-10T01:53:35.513Z,13.38
2023-05-10T01:54:35.507Z,13.44
2023-05-10T01:55:35.448Z,13.41
2023-05-10T01:56:35.387Z,13.43
2023-05-10T01:57:35.442Z,13.39
2023-05-10T02:00:45.754Z,13.36
2023-05-10T02:01:45.332Z,13.29
2023-05-10T02:02:45.433Z,13.28
2023-05-10T02:03:45.363Z,13.27
2023-05-10T02:04:45.212Z,13.41
2023-05-10T02:05:45.124Z,13.32
2023-05-10T02:06:45.219Z,13.31
2023-05-10T02:07:45.622Z,13.22
2023-05-10T02:08:45.001Z,13.21
2023-05-10T02:09:44.969Z,13.27
2023-05-10T02:10:44.909Z,13.25
2023-05-10T02:11:44.878Z,13.24
2023-05-10T02:12:44.890Z,13.22
2023-05-10T02:13:44.799Z,13.14
2023-05-10T02:14:44.755Z,13.12
2023-05-10T02:15:44.726Z,13.16
2023-05-10T02:16:44.680Z,13.16
2023-05-10T02:17:44.680Z,13.16
2023-05-10T02:19:02.165Z,13.17
2023-05-10T02:19:44.626Z,13.14
